»·PEaware :: N786SG KSAN-KPHX

N786SG :: KSAN-KPHX

FLIGHT INFORMATION

Flight Status: Arrived
Operator: Privately registered:
United States
More flights under this callsign
Pilot: Sulaiman S. (16428)
Aircraft: BOMBARDIER BD-100 CHALLENGER 300
(CL30)
More flights by this aircraft type
Origin: KSAN San Diego Intl-Lindbergh
United States
Destination: KPHX Phoenix Sky Harbor Intl
United States
More flights between these airports :: More routes between these airports
Route: +ZZOOO1 IPL J18 BZA HOGGZ HYDRR1
File this flight plan on PilotEdge
Remarks:
Altitude:
(Current/Filed)
33,000ft
Speed:
(Current/Filed)
300kts
Departed: 09-Oct-17 03:32 PM
Arrived: 09-Oct-17 04:21 PM
Distance/Time
Traveled:
263nm/0:49
Distance/Time
To Go:
Arrived

Flight Plot

Page will automatically refresh every two minutes.

Flight plan parsing failed; only flown route is shown


Map Options




Map Legend


Flown Route
Filed Route
Departure Airport
Arrival Airport
Navaid (VOR, NDB)
Fix

Horizontal Profiles

Position Reports

Time Latitude Longitude Heading Altitude Ground
Speed
09-Oct-17 15:20 32.732624 -117.177324 194 24ft 0kts
09-Oct-17 15:21 32.732624 -117.177324 194 24ft 0kts
09-Oct-17 15:22 32.732624 -117.177324 194 24ft 0kts
09-Oct-17 15:23 32.732624 -117.177324 194 24ft 0kts
09-Oct-17 15:24 32.732624 -117.177324 194 24ft 0kts
09-Oct-17 15:25 32.732624 -117.177324 194 24ft 0kts
09-Oct-17 15:26 32.732624 -117.177324 194 24ft 0kts
09-Oct-17 15:27 32.732624 -117.177324 194 24ft 0kts
09-Oct-17 15:28 32.732624 -117.177324 194 24ft 0kts
09-Oct-17 15:29 32.732624 -117.177324 194 24ft 0kts
09-Oct-17 15:30 32.732225 -117.177314 175 24ft 3kts
09-Oct-17 15:31 32.731170 -117.175902 113 24ft 8kts
09-Oct-17 15:32 32.730911 -117.175494 138 24ft 0kts
09-Oct-17 15:33 32.730911 -117.175494 138 24ft 0kts
09-Oct-17 15:33 32.730911 -117.175494 138 24ft 0kts
09-Oct-17 15:35 32.730359 -117.176507 286 23ft 6kts
09-Oct-17 15:35 32.730425 -117.176770 286 23ft 0kts
09-Oct-17 15:36 32.737472 -117.204660 284 1684ft 193kts
09-Oct-17 15:38 32.747684 -117.308529 237 5286ft 315kts
09-Oct-17 15:39 32.671751 -117.306429 130 8219ft 337kts
09-Oct-17 15:39 32.634516 -117.223706 99 10319ft 357kts
09-Oct-17 15:40 32.620388 -117.106332 95 14693ft 373kts
09-Oct-17 15:41 32.608215 -116.982138 95 19593ft 402kts
09-Oct-17 15:42 32.617397 -116.847117 76 23022ft 444kts
09-Oct-17 15:43 32.637358 -116.699220 82 26551ft 463kts
09-Oct-17 15:44 32.652298 -116.547395 82 29294ft 485kts
09-Oct-17 15:45 32.663961 -116.426576 82 30969ft 497kts
09-Oct-17 15:46 32.679514 -116.263038 82 32845ft 512kts
09-Oct-17 15:47 32.695253 -116.095673 82 32991ft 508kts
09-Oct-17 15:48 32.703294 -116.009255 82 32992ft 503kts
09-Oct-17 15:49 32.718410 -115.845645 82 32993ft 497kts
09-Oct-17 15:50 32.733180 -115.683453 82 32968ft 494kts
09-Oct-17 15:51 32.747498 -115.523922 82 32969ft 491kts
09-Oct-17 15:52 32.752435 -115.362062 87 32999ft 489kts
09-Oct-17 15:53 32.756117 -115.202234 87 33019ft 488kts
09-Oct-17 15:54 32.759624 -115.041214 87 33020ft 487kts
09-Oct-17 15:55 32.762915 -114.880404 87 32941ft 489kts
09-Oct-17 15:56 32.766011 -114.719030 87 32941ft 488kts
09-Oct-17 15:57 32.768749 -114.558183 88 32942ft 487kts
09-Oct-17 15:58 32.770901 -114.402098 88 32921ft 446kts
09-Oct-17 15:59 32.772649 -114.264066 88 32934ft 409kts
09-Oct-17 16:00 32.774185 -114.131445 88 32935ft 395kts
09-Oct-17 16:01 32.782420 -114.004134 81 32933ft 384kts
09-Oct-17 16:02 32.795928 -113.878733 81 32658ft 383kts
09-Oct-17 16:03 32.810694 -113.742800 81 28975ft 466kts
09-Oct-17 16:04 32.876857 -113.613015 48 24918ft 436kts
09-Oct-17 16:05 32.951756 -113.507696 46 24916ft 417kts
09-Oct-17 16:06 33.029000 -113.402385 45 24942ft 428kts
09-Oct-17 16:07 33.109743 -113.293125 46 23093ft 477kts
09-Oct-17 16:08 33.160386 -113.224407 46 22898ft 436kts
09-Oct-17 16:09 33.219928 -113.143440 46 23061ft 377kts
09-Oct-17 16:10 33.287625 -113.051311 46 19991ft 365kts
09-Oct-17 16:11 33.351292 -112.964342 46 18932ft 328kts
09-Oct-17 16:12 33.375901 -112.866398 107 16625ft 371kts
09-Oct-17 16:13 33.344235 -112.745618 106 12860ft 379kts
09-Oct-17 16:14 33.344107 -112.745130 106 12850ft 379kts
09-Oct-17 16:15 33.353607 -112.659707 68 11941ft 333kts
09-Oct-17 16:16 33.385102 -112.556205 68 9802ft 329kts
09-Oct-17 16:17 33.416599 -112.459470 65 8329ft 309kts
09-Oct-17 16:18 33.426802 -112.366397 88 6087ft 251kts
09-Oct-17 16:19 33.427893 -112.294164 89 5130ft 194kts
09-Oct-17 16:20 33.428357 -112.235644 89 5116ft 181kts
09-Oct-17 16:21 33.428828 -112.172999 89 3473ft 197kts
09-Oct-17 16:22 33.428827 -112.116316 88 2628ft 147kts
09-Oct-17 16:23 33.428862 -112.070131 88 1908ft 143kts
09-Oct-17 16:24 33.428807 -112.021016 88 1160ft 132kts
09-Oct-17 16:25 33.428109 -112.006236 183 1140ft 0kts
09-Oct-17 16:26 33.427751 -112.011095 270 1141ft 22kts
09-Oct-17 16:27 33.427581 -112.015770 235 1140ft 6kts
09-Oct-17 16:28 33.427731 -112.020139 269 1141ft 14kts
09-Oct-17 16:29 33.425864 -112.020429 256 1140ft 13kts
09-Oct-17 16:30 33.426504 -112.021133 0 1140ft 0kts
09-Oct-17 16:31 33.426512 -112.021133 0 1140ft 0kts
09-Oct-17 16:32 33.426512 -112.021133 0 1140ft 0kts
09-Oct-17 16:33 33.426512 -112.021133 0 1140ft 0kts
09-Oct-17 16:34 33.426512 -112.021133 0 1140ft 0kts
09-Oct-17 16:35 33.426512 -112.021133 0 1140ft 0kts
09-Oct-17 16:36 33.426512 -112.021133 0 1140ft 0kts
09-Oct-17 16:37 33.426512 -112.021133 0 1140ft 0kts
09-Oct-17 16:38 33.426512 -112.021133 0 1140ft 0kts
09-Oct-17 16:39 33.426635 -112.021132 0 1141ft 0kts

Navigation Log

Ident Type
Flight plan parsing failed, navigation log unavailable